Time;durP1;ratioP1;P1;durP2;ratioP2;P2;SDS_P1;SDS_P2;PMS_P1;PMS_P2;Temp;Humidity;BMP_temperature;BMP_pressure;BME280_temperature;BME280_humidity;BME280_pressure;Samples;Min_cycle;Max_cycle;Signal;HPM_P1;HPM_P2
2021/05/29 00:00:47;;;;;;;5.90;5.30;;;12.50;99.90;;;;;;5034330;28;20436;-38
2021/05/29 00:03:14;;;;;;;6.10;4.80;;;12.60;99.90;;;;;;5038157;28;20435;-38
2021/05/29 00:05:40;;;;;;;5.73;5.23;;;12.60;99.90;;;;;;5040218;28;20516;-38
2021/05/29 00:08:06;;;;;;;5.57;5.07;;;12.60;99.90;;;;;;5037091;28;20494;-38
2021/05/29 00:10:33;;;;;;;6.07;5.57;;;12.60;99.90;;;;;;5025720;28;20461;-38
2021/05/29 00:13:00;;;;;;;5.70;5.07;;;12.50;99.90;;;;;;5026023;28;20464;-38
2021/05/29 00:15:26;;;;;;;6.40;5.40;;;12.40;99.90;;;;;;5037309;28;20449;-38
2021/05/29 00:17:51;;;;;;;6.17;5.07;;;12.40;99.90;;;;;;5045528;28;20420;-38
2021/05/29 00:20:17;;;;;;;6.03;4.93;;;12.40;99.90;;;;;;5034014;28;20459;-38
2021/05/29 00:22:43;;;;;;;6.17;5.17;;;12.30;99.90;;;;;;5026007;28;20191;-37
2021/05/29 00:25:09;;;;;;;5.13;4.63;;;12.30;99.90;;;;;;5024612;28;20205;-38
2021/05/29 00:27:35;;;;;;;6.13;4.93;;;12.30;99.90;;;;;;5025613;28;20650;-38
2021/05/29 00:30:01;;;;;;;5.20;4.70;;;12.30;99.90;;;;;;5025340;28;20514;-38
2021/05/29 00:32:26;;;;;;;5.10;4.70;;;12.30;99.90;;;;;;5029372;28;20421;-38
2021/05/29 00:34:52;;;;;;;4.70;4.30;;;12.40;99.90;;;;;;5031101;28;20435;-38
2021/05/29 00:37:18;;;;;;;5.50;4.80;;;12.40;99.90;;;;;;5024579;28;20607;-38
2021/05/29 00:39:43;;;;;;;4.97;4.47;;;12.40;99.90;;;;;;5033339;28;20186;-37
2021/05/29 00:42:09;;;;;;;4.97;4.50;;;12.50;99.90;;;;;;5025585;28;20553;-38
2021/05/29 00:44:49;;;;;;;4.97;4.40;;;12.40;99.90;;;;;;5007887;28;20310;-38
2021/05/29 00:47:19;;;;;;;5.43;4.93;;;12.10;99.90;;;;;;5036139;28;20217;-38
2021/05/29 00:49:44;;;;;;;6.83;5.47;;;11.90;99.90;;;;;;5047033;28;20890;-38
2021/05/29 00:52:12;;;;;;;8.00;6.07;;;11.90;99.90;;;;;;5033710;28;20436;-38
2021/05/29 00:54:38;;;;;;;5.67;5.03;;;12.00;99.90;;;;;;5037740;28;20194;-38
2021/05/29 00:57:03;;;;;;;5.50;5.00;;;11.90;99.90;;;;;;5046528;28;20470;-38
2021/05/29 00:59:29;;;;;;;5.27;4.77;;;11.60;99.90;;;;;;5035162;28;20194;-38
2021/05/29 01:01:55;;;;;;;6.13;5.60;;;11.40;99.90;;;;;;5038764;28;20186;-38
2021/05/29 01:04:21;;;;;;;6.00;5.07;;;11.30;99.90;;;;;;5043858;28;20539;-38
2021/05/29 01:06:46;;;;;;;7.30;5.33;;;11.30;99.90;;;;;;5027522;28;20249;-38
2021/05/29 01:09:12;;;;;;;6.37;5.27;;;11.20;99.90;;;;;;5028306;28;20272;-38
2021/05/29 01:11:38;;;;;;;6.10;5.50;;;11.20;99.90;;;;;;5028867;28;20300;-38
2021/05/29 01:14:03;;;;;;;6.60;5.90;;;11.20;99.90;;;;;;5037084;28;20207;-38
2021/05/29 01:19:09;;;;;;;6.80;5.60;;;11.20;99.90;;;;;;5039414;28;20242;-38
2021/05/29 01:21:35;;;;;;;6.43;5.83;;;11.30;99.90;;;;;;5039311;28;20433;-38
2021/05/29 01:24:00;;;;;;;6.30;5.70;;;11.30;99.90;;;;;;5044635;28;20470;-38
2021/05/29 01:26:26;;;;;;;6.37;5.77;;;11.20;99.90;;;;;;5031618;28;20198;-38
2021/05/29 01:28:56;;;;;;;5.90;5.40;;;11.10;99.90;;;;;;5028186;28;20415;-38
2021/05/29 01:31:26;;;;;;;8.70;6.30;;;11.00;99.90;;;;;;5035959;28;20292;-38
2021/05/29 01:34:00;;;;;;;6.13;5.20;;;10.90;99.90;;;;;;5036185;28;20428;-38
2021/05/29 01:36:27;;;;;;;6.73;6.03;;;10.80;99.90;;;;;;5028252;28;20451;-38
2021/05/29 01:38:54;;;;;;;7.30;5.80;;;10.80;99.90;;;;;;5032784;28;20702;-38
2021/05/29 01:41:22;;;;;;;6.63;5.63;;;10.60;99.90;;;;;;5029088;28;20425;-38
2021/05/29 01:43:49;;;;;;;6.70;6.00;;;10.50;99.90;;;;;;5028453;28;20441;-38
2021/05/29 01:46:18;;;;;;;7.87;6.00;;;10.50;99.90;;;;;;5033062;28;20452;-38
2021/05/29 01:48:47;;;;;;;7.73;6.47;;;10.40;99.90;;;;;;5042340;28;20431;-38
2021/05/29 01:51:15;;;;;;;6.70;5.90;;;10.30;99.90;;;;;;5038063;28;20484;-38
2021/05/29 01:53:41;;;;;;;7.03;5.90;;;10.30;99.90;;;;;;5028137;28;20433;-38
2021/05/29 01:56:08;;;;;;;6.40;5.80;;;10.30;99.90;;;;;;5026453;28;20465;-38
2021/05/29 01:58:36;;;;;;;6.80;6.10;;;10.20;99.90;;;;;;5027540;28;20449;-38
2021/05/29 02:01:03;;;;;;;5.90;5.40;;;10.20;99.90;;;;;;5029348;28;20936;-38
2021/05/29 02:03:28;;;;;;;6.80;6.10;;;10.20;99.90;;;;;;5041358;28;21004;-38
2021/05/29 02:05:54;;;;;;;6.80;6.20;;;10.20;99.90;;;;;;5034683;28;20433;-38
2021/05/29 02:08:20;;;;;;;6.17;5.37;;;10.20;99.90;;;;;;5027536;28;20213;-38
2021/05/29 02:10:47;;;;;;;7.10;5.70;;;10.20;99.90;;;;;;5038478;28;20583;-38
2021/05/29 02:13:23;;;;;;;8.43;6.70;;;10.50;99.90;;;;;;5028672;28;20463;-37
2021/05/29 02:15:49;;;;;;;6.57;5.93;;;10.40;99.90;;;;;;5039452;28;20420;-38
2021/05/29 02:18:15;;;;;;;6.27;5.30;;;10.40;99.90;;;;;;5033998;28;20520;-38
2021/05/29 02:20:52;;;;;;;5.70;5.07;;;10.20;99.90;;;;;;5041112;28;20524;-38
2021/05/29 02:23:20;;;;;;;5.07;4.63;;;10.10;99.90;;;;;;5039207;28;20208;-38
2021/05/29 02:25:47;;;;;;;6.57;5.37;;;9.90;99.90;;;;;;5033459;28;20858;-38
2021/05/29 02:28:13;;;;;;;6.10;5.50;;;9.90;99.90;;;;;;5027108;28;20440;-38
2021/05/29 02:30:39;;;;;;;7.30;5.27;;;9.80;99.90;;;;;;5026168;28;20472;-38
2021/05/29 02:33:06;;;;;;;6.60;5.90;;;9.80;99.90;;;;;;5033198;28;20432;-38
2021/05/29 02:35:32;;;;;;;6.93;6.17;;;9.80;99.90;;;;;;5039999;28;20417;-38
2021/05/29 02:37:58;;;;;;;7.27;6.20;;;9.80;99.90;;;;;;5029365;28;20417;-38
2021/05/29 02:40:24;;;;;;;6.20;5.70;;;10.00;99.90;;;;;;5036784;28;20442;-38
2021/05/29 02:42:51;;;;;;;7.50;6.70;;;10.00;99.90;;;;;;5028730;28;20223;-38
2021/05/29 02:45:17;;;;;;;7.93;6.60;;;10.00;99.90;;;;;;5026003;28;20875;-38
2021/05/29 02:47:42;;;;;;;6.63;6.03;;;10.10;99.90;;;;;;5038077;28;20484;-38
2021/05/29 02:50:09;;;;;;;7.30;6.60;;;9.90;99.90;;;;;;5040650;28;20452;-38
2021/05/29 02:52:35;;;;;;;7.13;6.43;;;9.90;99.90;;;;;;5041214;28;20621;-38
2021/05/29 02:55:01;;;;;;;6.97;6.20;;;9.70;99.90;;;;;;5040875;28;20495;-38
2021/05/29 02:57:26;;;;;;;8.60;6.80;;;9.70;99.90;;;;;;5028136;28;20520;-38
2021/05/29 02:59:52;;;;;;;7.47;6.40;;;9.60;99.90;;;;;;5025422;28;20194;-38
2021/05/29 03:02:18;;;;;;;6.80;6.20;;;9.60;99.90;;;;;;5032678;28;20193;-38
2021/05/29 03:04:44;;;;;;;7.77;6.97;;;9.80;99.90;;;;;;5043850;28;20255;-38
2021/05/29 03:07:09;;;;;;;6.83;6.20;;;9.40;99.90;;;;;;5038926;28;20569;-38
2021/05/29 03:09:35;;;;;;;8.07;7.37;;;9.60;99.90;;;;;;5026470;28;20425;-38
2021/05/29 03:12:01;;;;;;;7.67;6.97;;;9.50;99.90;;;;;;5026989;28;20647;-38
2021/05/29 03:14:27;;;;;;;7.47;6.77;;;9.40;99.90;;;;;;5038420;28;20247;-38
2021/05/29 03:16:53;;;;;;;7.30;6.60;;;9.40;99.90;;;;;;5039907;28;20432;-38
2021/05/29 03:19:19;;;;;;;7.70;6.90;;;9.50;99.90;;;;;;5038257;28;20729;-38
2021/05/29 03:21:45;;;;;;;9.10;7.17;;;9.60;99.90;;;;;;5038731;28;20275;-38
2021/05/29 03:24:12;;;;;;;7.83;7.13;;;9.50;99.90;;;;;;5035405;28;20755;-38
2021/05/29 03:26:38;;;;;;;8.47;7.67;;;9.40;99.90;;;;;;5038828;28;20430;-38
2021/05/29 03:29:04;;;;;;;7.83;7.17;;;9.60;99.90;;;;;;5025933;28;20433;-38
2021/05/29 03:31:31;;;;;;;9.57;7.70;;;9.50;99.90;;;;;;5026152;28;20217;-38
2021/05/29 03:33:57;;;;;;;10.23;8.17;;;9.60;99.90;;;;;;5039219;28;20416;-38
2021/05/29 03:36:23;;;;;;;9.60;7.53;;;9.50;99.90;;;;;;5036737;28;20788;-38
2021/05/29 03:38:48;;;;;;;8.47;7.60;;;9.40;99.90;;;;;;5025684;28;20186;-38
2021/05/29 03:41:14;;;;;;;9.70;7.93;;;9.60;99.90;;;;;;5034361;28;20264;-38
2021/05/29 03:43:40;;;;;;;7.70;7.00;;;9.30;99.90;;;;;;5026229;28;20190;-38
2021/05/29 03:46:06;;;;;;;8.03;7.33;;;9.60;99.90;;;;;;5024847;28;20702;-38
2021/05/29 03:48:32;;;;;;;8.40;7.53;;;9.30;99.90;;;;;;5037113;28;20332;-38
2021/05/29 03:50:58;;;;;;;10.00;7.50;;;9.30;99.90;;;;;;5040082;28;20216;-38
2021/05/29 03:53:24;;;;;;;8.20;7.40;;;9.20;99.90;;;;;;5034306;28;20425;-38
2021/05/29 03:55:50;;;;;;;8.90;8.00;;;9.30;99.90;;;;;;5028670;28;20799;-38
2021/05/29 03:58:16;;;;;;;9.73;8.30;;;9.20;99.90;;;;;;5026401;28;20364;-38
2021/05/29 04:00:42;;;;;;;9.27;8.13;;;9.30;99.90;;;;;;5025423;28;20437;-38
2021/05/29 04:03:07;;;;;;;11.20;8.47;;;9.50;99.90;;;;;;5028376;28;20198;-38
2021/05/29 04:05:33;;;;;;;9.17;8.27;;;9.60;99.90;;;;;;5037471;28;20320;-38
2021/05/29 04:07:59;;;;;;;9.23;8.33;;;9.70;99.90;;;;;;5029156;28;20218;-38
2021/05/29 04:10:29;;;;;;;9.80;8.37;;;9.60;99.90;;;;;;5009858;28;20557;-38
2021/05/29 04:12:56;;;;;;;9.27;8.27;;;9.70;99.90;;;;;;5037828;28;20641;-38
2021/05/29 04:15:22;;;;;;;10.73;8.70;;;9.60;99.90;;;;;;5045793;28;20907;-38
2021/05/29 04:17:48;;;;;;;10.60;9.10;;;9.80;99.90;;;;;;5044964;28;20436;-38
2021/05/29 04:20:17;;;;;;;10.80;9.70;;;9.80;99.90;;;;;;5033659;28;20570;-38
2021/05/29 04:22:43;;;;;;;11.03;9.67;;;9.90;99.90;;;;;;5033943;28;20651;-38
2021/05/29 04:25:12;;;;;;;10.63;9.57;;;9.80;99.90;;;;;;5028104;28;20425;-38
2021/05/29 04:27:38;;;;;;;11.87;8.93;;;9.90;99.90;;;;;;5033932;28;20677;-38
2021/05/29 04:30:06;;;;;;;10.07;8.77;;;10.20;99.90;;;;;;5028884;28;20555;-38
2021/05/29 04:32:32;;;;;;;10.90;9.27;;;10.20;99.90;;;;;;5031487;28;20201;-38
2021/05/29 04:34:58;;;;;;;10.07;9.10;;;10.40;99.90;;;;;;5043161;28;20862;-38
2021/05/29 04:37:23;;;;;;;10.53;9.37;;;10.40;99.90;;;;;;5044873;28;20185;-38
2021/05/29 04:39:49;;;;;;;9.80;8.90;;;10.50;99.90;;;;;;5028883;28;20198;-38
2021/05/29 04:42:15;;;;;;;11.00;8.63;;;10.60;99.90;;;;;;5028560;28;20713;-38
2021/05/29 04:44:40;;;;;;;10.60;9.30;;;10.70;99.90;;;;;;5042529;28;20718;-38
2021/05/29 04:47:06;;;;;;;9.53;8.63;;;10.70;99.90;;;;;;5040489;28;20720;-38
2021/05/29 04:49:32;;;;;;;10.97;8.47;;;10.80;99.90;;;;;;5039138;28;20273;-38
2021/05/29 04:51:58;;;;;;;12.17;9.53;;;10.80;99.90;;;;;;5043490;28;20217;-38
2021/05/29 04:54:25;;;;;;;11.20;9.80;;;10.90;99.90;;;;;;5038359;28;20447;-38
2021/05/29 04:56:51;;;;;;;10.17;8.83;;;10.90;99.90;;;;;;5037983;28;20448;-38
2021/05/29 04:59:16;;;;;;;10.60;9.40;;;10.90;99.90;;;;;;5028401;28;20662;-38
2021/05/29 05:01:42;;;;;;;14.10;9.57;;;11.00;99.90;;;;;;5029014;28;20198;-38
2021/05/29 05:04:08;;;;;;;13.03;10.07;;;11.00;99.90;;;;;;5037439;28;20189;-38
2021/05/29 05:06:36;;;;;;;10.10;9.10;;;11.20;99.90;;;;;;5043328;28;20236;-38
2021/05/29 05:09:02;;;;;;;9.90;8.90;;;11.30;99.90;;;;;;5039785;28;20452;-38
2021/05/29 05:11:28;;;;;;;10.90;9.80;;;11.40;99.90;;;;;;5033158;28;20480;-38
2021/05/29 05:13:53;;;;;;;10.57;8.70;;;11.40;99.90;;;;;;5035272;28;20424;-38
2021/05/29 05:16:19;;;;;;;10.83;9.67;;;11.50;99.90;;;;;;5048612;28;20704;-38
2021/05/29 05:18:45;;;;;;;12.77;11.10;;;11.60;99.90;;;;;;5038282;28;20186;-38
2021/05/29 05:21:11;;;;;;;10.63;9.30;;;11.60;99.90;;;;;;5041652;28;20190;-38
2021/05/29 05:23:37;;;;;;;11.57;9.60;;;11.70;99.90;;;;;;5033124;28;20940;-38
2021/05/29 05:26:03;;;;;;;9.83;8.83;;;11.80;99.90;;;;;;5028621;28;20782;-38
2021/05/29 05:28:29;;;;;;;10.03;9.03;;;11.80;99.90;;;;;;5040577;28;20425;-38
2021/05/29 05:31:02;;;;;;;10.40;8.17;;;11.90;99.90;;;;;;5035473;28;20550;-38
2021/05/29 05:33:28;;;;;;;10.73;8.93;;;12.00;99.90;;;;;;5043844;28;20527;-38
2021/05/29 05:35:54;;;;;;;9.30;8.40;;;12.10;99.90;;;;;;5039764;28;20748;-39
2021/05/29 05:38:20;;;;;;;11.07;9.90;;;12.20;99.90;;;;;;5033883;28;20457;-38
2021/05/29 05:40:47;;;;;;;12.50;9.80;;;12.20;99.90;;;;;;5027457;28;20959;-38
2021/05/29 05:43:12;;;;;;;9.00;8.20;;;12.30;99.90;;;;;;5035166;28;20529;-38
2021/05/29 05:45:38;;;;;;;9.57;8.67;;;12.40;99.90;;;;;;5028296;28;20711;-38
2021/05/29 05:48:05;;;;;;;11.50;9.67;;;12.50;99.90;;;;;;5028857;28;20204;-39
2021/05/29 05:50:31;;;;;;;9.93;8.63;;;12.60;99.90;;;;;;5039036;28;20503;-39
2021/05/29 05:52:56;;;;;;;11.40;9.57;;;12.80;99.90;;;;;;5038460;28;20456;-38
2021/05/29 05:55:22;;;;;;;10.13;9.20;;;13.00;99.90;;;;;;5033922;28;20198;-39
2021/05/29 05:57:48;;;;;;;10.57;9.47;;;13.10;99.90;;;;;;5031845;28;20696;-38
2021/05/29 06:00:16;;;;;;;10.07;8.63;;;13.30;99.90;;;;;;5030896;28;20198;-38
2021/05/29 06:02:43;;;;;;;11.20;9.90;;;13.50;99.90;;;;;;5027862;28;20190;-38
2021/05/29 06:05:10;;;;;;;10.80;9.70;;;13.60;99.90;;;;;;5040226;28;20436;-38
2021/05/29 06:07:36;;;;;;;10.30;9.20;;;13.80;99.90;;;;;;5042189;28;20453;-39
2021/05/29 06:10:04;;;;;;;11.07;10.10;;;13.90;99.90;;;;;;5045094;28;20770;-38
2021/05/29 06:12:31;;;;;;;10.07;9.17;;;14.10;99.90;;;;;;5044823;28;20269;-38
2021/05/29 06:20:26;;;;;;;11.67;10.57;;;14.50;99.90;;;;;;5034439;28;20445;-38
2021/05/29 06:22:51;;;;;;;12.57;10.60;;;14.50;99.90;;;;;;5044389;28;20437;-38
2021/05/29 06:25:17;;;;;;;10.73;9.60;;;14.70;99.90;;;;;;5036454;28;20213;-38
2021/05/29 06:27:43;;;;;;;12.00;10.60;;;14.80;99.90;;;;;;5040462;28;20744;-38
2021/05/29 06:30:11;;;;;;;11.53;9.13;;;14.80;99.90;;;;;;5032539;28;20299;-38
2021/05/29 06:32:39;;;;;;;11.00;9.27;;;14.90;99.90;;;;;;5026339;28;20197;-38
2021/05/29 06:35:07;;;;;;;11.77;10.20;;;15.10;99.90;;;;;;5033743;28;21002;-38
2021/05/29 06:37:35;;;;;;;13.87;10.23;;;15.30;99.90;;;;;;5036376;28;20435;-38
2021/05/29 06:40:00;;;;;;;10.73;9.63;;;15.30;99.90;;;;;;5038804;28;20425;-38
2021/05/29 06:42:26;;;;;;;11.00;9.90;;;15.40;99.90;;;;;;5030526;28;20769;-38
2021/05/29 06:44:52;;;;;;;10.93;9.40;;;15.40;99.90;;;;;;5037769;28;20190;-38
2021/05/29 06:47:17;;;;;;;10.07;9.00;;;15.50;99.90;;;;;;5036607;28;20187;-38
2021/05/29 06:49:43;;;;;;;10.17;9.10;;;15.50;99.90;;;;;;5029991;28;20659;-38
2021/05/29 06:52:14;;;;;;;11.17;10.03;;;15.50;99.90;;;;;;5039994;28;20324;-38
2021/05/29 06:54:58;;;;;;;10.20;9.20;;;15.60;99.90;;;;;;5029348;28;20649;-38
2021/05/29 07:00:09;;;;;;;11.20;10.20;;;15.90;99.90;;;;;;5026429;28;20431;-38
2021/05/29 07:02:35;;;;;;;9.13;8.33;;;16.10;99.90;;;;;;5026964;28;20514;-38
2021/05/29 07:05:04;;;;;;;10.10;8.83;;;16.10;99.90;;;;;;5034491;28;20506;-38
2021/05/29 07:07:30;;;;;;;8.83;8.00;;;16.10;99.90;;;;;;5032463;28;20693;-38
2021/05/29 07:09:56;;;;;;;9.13;8.13;;;16.20;99.90;;;;;;5032581;28;20464;-38
2021/05/29 07:12:23;;;;;;;11.33;10.23;;;16.20;99.90;;;;;;5029954;28;20596;-38
2021/05/29 07:14:49;;;;;;;10.17;9.17;;;16.20;99.90;;;;;;5029039;28;20498;-38
2021/05/29 07:17:15;;;;;;;11.20;9.93;;;16.00;99.90;;;;;;5039779;28;20436;-38
2021/05/29 07:19:41;;;;;;;11.13;10.07;;;16.00;99.90;;;;;;5039770;28;20591;-38
2021/05/29 07:22:06;;;;;;;10.80;9.70;;;16.20;99.90;;;;;;5039894;28;20416;-38
2021/05/29 07:24:33;;;;;;;11.90;10.70;;;16.40;99.90;;;;;;5042948;28;20190;-38
2021/05/29 07:26:59;;;;;;;11.33;10.13;;;16.30;99.90;;;;;;5026280;28;20205;-38
2021/05/29 07:29:27;;;;;;;12.53;10.80;;;15.90;99.90;;;;;;5030293;28;20927;-38
2021/05/29 07:31:53;;;;;;;14.33;11.83;;;15.70;99.90;;;;;;5025384;28;20535;-38
2021/05/29 07:34:19;;;;;;;13.97;12.47;;;15.60;99.90;;;;;;5026119;28;20953;-38
2021/05/29 07:36:45;;;;;;;17.30;14.50;;;15.60;99.90;;;;;;5050253;28;20972;-37
2021/05/29 07:39:12;;;;;;;15.77;14.13;;;15.60;99.90;;;;;;5032655;28;20465;-38
2021/05/29 07:41:38;;;;;;;16.10;14.40;;;15.90;99.90;;;;;;5040302;28;20421;-38
2021/05/29 07:44:06;;;;;;;17.60;15.80;;;16.10;99.90;;;;;;5041735;28;20891;-38
2021/05/29 07:46:32;;;;;;;18.00;16.13;;;16.10;99.90;;;;;;5026338;28;20436;-38
2021/05/29 07:48:59;;;;;;;17.83;16.03;;;16.00;99.90;;;;;;5025959;28;20452;-38
2021/05/29 07:51:25;;;;;;;18.63;16.57;;;15.90;99.90;;;;;;5030632;28;20461;-38
2021/05/29 07:53:51;;;;;;;19.30;15.70;;;16.00;99.90;;;;;;5038379;28;20841;-38
2021/05/29 07:56:19;;;;;;;20.33;18.30;;;16.10;99.90;;;;;;5041433;28;20599;-39
2021/05/29 07:58:47;;;;;;;18.20;16.37;;;16.10;99.90;;;;;;5032948;28;20458;-38
2021/05/29 08:01:14;;;;;;;19.37;17.10;;;15.90;99.90;;;;;;5029674;28;21236;-38
2021/05/29 08:03:40;;;;;;;18.53;16.60;;;15.80;99.90;;;;;;5028925;28;20429;-38
2021/05/29 08:06:14;;;;;;;17.97;16.17;;;15.80;99.90;;;;;;5037799;28;20562;-38
2021/05/29 08:08:39;;;;;;;21.17;17.00;;;15.80;99.90;;;;;;5046406;28;20453;-38
2021/05/29 08:11:05;;;;;;;20.37;17.17;;;15.80;99.90;;;;;;5031030;28;20479;-38
2021/05/29 08:13:32;;;;;;;21.10;18.90;;;15.70;99.90;;;;;;5033625;28;20597;-38
2021/05/29 08:15:58;;;;;;;19.20;17.30;;;15.60;99.90;;;;;;5050273;28;20408;-38
2021/05/29 08:18:23;;;;;;;20.37;18.17;;;15.50;99.90;;;;;;5049168;28;20786;-38
2021/05/29 08:20:51;;;;;;;21.00;18.47;;;15.50;99.90;;;;;;5045519;28;20193;-38
2021/05/29 08:23:17;;;;;;;19.27;17.37;;;15.50;99.90;;;;;;5038517;28;20265;-38
2021/05/29 08:25:43;;;;;;;18.57;16.77;;;15.50;99.90;;;;;;5036789;28;20890;-38
2021/05/29 08:28:09;;;;;;;20.37;18.37;;;15.60;99.90;;;;;;5029850;28;20420;-38
2021/05/29 08:30:35;;;;;;;24.17;17.57;;;15.70;99.90;;;;;;5036253;28;20198;-38
2021/05/29 08:33:01;;;;;;;19.90;18.03;;;15.90;99.90;;;;;;5028025;28;20792;-38
2021/05/29 08:35:27;;;;;;;19.90;18.00;;;16.10;99.90;;;;;;5032570;28;20428;-38
2021/05/29 08:37:53;;;;;;;20.20;16.63;;;16.40;99.90;;;;;;5039021;28;20428;-38
2021/05/29 08:40:20;;;;;;;17.20;15.20;;;16.60;99.90;;;;;;5043005;28;20272;-38
2021/05/29 08:42:47;;;;;;;19.80;15.70;;;16.70;99.90;;;;;;5032280;28;20565;-38
2021/05/29 08:45:14;;;;;;;18.60;16.80;;;16.70;99.90;;;;;;5031077;28;20429;-38
2021/05/29 08:47:40;;;;;;;16.10;14.50;;;16.40;99.90;;;;;;5029177;28;20657;-38
2021/05/29 08:50:07;;;;;;;16.33;14.43;;;16.30;99.90;;;;;;5028184;28;20904;-38
2021/05/29 08:52:37;;;;;;;14.40;12.97;;;16.30;99.90;;;;;;5046626;28;20820;-38
2021/05/29 08:55:11;;;;;;;15.80;13.27;;;16.30;99.90;;;;;;5044035;28;20412;-38
2021/05/29 08:57:37;;;;;;;12.30;11.17;;;16.50;99.90;;;;;;5031002;28;20764;-38
2021/05/29 09:00:06;;;;;;;16.67;12.57;;;16.60;99.90;;;;;;5039787;28;20420;-38
2021/05/29 09:02:32;;;;;;;13.37;12.17;;;16.60;99.90;;;;;;5029609;28;20517;-38
2021/05/29 09:05:05;;;;;;;14.40;11.00;;;16.80;99.90;;;;;;5029120;28;20496;-38
2021/05/29 09:07:31;;;;;;;11.03;9.93;;;17.00;99.90;;;;;;5028412;28;20963;-38
2021/05/29 09:10:13;;;;;;;11.50;10.30;;;17.30;99.90;;;;;;5036957;28;20413;-38
2021/05/29 09:13:00;;;;;;;10.53;9.53;;;17.20;99.90;;;;;;5029022;28;20239;-38
2021/05/29 09:15:47;;;;;;;11.07;9.97;;;17.10;99.90;;;;;;5048043;28;20478;-38
2021/05/29 09:18:32;;;;;;;11.30;10.20;;;17.20;99.90;;;;;;5041867;28;20482;-38
2021/05/29 09:21:17;;;;;;;9.57;8.63;;;17.10;99.90;;;;;;5045722;28;20529;-38
2021/05/29 09:23:47;;;;;;;10.57;9.63;;;17.00;99.90;;;;;;5036278;28;20420;-38
2021/05/29 09:26:13;;;;;;;10.53;9.40;;;16.60;99.90;;;;;;5043046;28;20796;-38
2021/05/29 09:28:43;;;;;;;11.60;9.63;;;16.60;99.90;;;;;;5028285;28;20437;-38
2021/05/29 09:31:14;;;;;;;12.47;10.10;;;16.60;99.90;;;;;;5029216;28;20821;-38
2021/05/29 09:33:44;;;;;;;11.27;8.93;;;16.50;99.90;;;;;;5027972;28;20445;-38
2021/05/29 09:36:12;;;;;;;10.97;9.10;;;16.70;99.90;;;;;;5028590;28;20461;-38
2021/05/29 09:38:54;;;;;;;9.60;8.63;;;16.70;99.90;;;;;;5035814;28;20433;-38
2021/05/29 09:41:28;;;;;;;10.50;9.50;;;16.90;99.90;;;;;;5031954;28;20459;-38
2021/05/29 09:43:55;;;;;;;9.60;8.63;;;16.90;99.90;;;;;;5028289;28;20445;-38
2021/05/29 09:46:22;;;;;;;10.93;9.77;;;16.90;99.90;;;;;;5038809;28;20559;-38
2021/05/29 09:49:01;;;;;;;11.60;9.03;;;17.00;99.90;;;;;;5027815;28;20452;-38
2021/05/29 09:51:33;;;;;;;11.53;9.90;;;17.20;99.90;;;;;;5032726;28;20464;-38
2021/05/29 09:54:10;;;;;;;10.53;8.53;;;17.40;99.90;;;;;;5035794;28;20786;-38
2021/05/29 09:56:41;;;;;;;8.70;7.70;;;17.40;99.90;;;;;;5033537;28;20595;-38
2021/05/29 09:59:08;;;;;;;9.27;8.30;;;17.40;99.90;;;;;;5027512;28;20463;-38
2021/05/29 10:01:38;;;;;;;9.83;8.73;;;17.40;99.90;;;;;;5033850;28;20943;-38
2021/05/29 10:04:06;;;;;;;10.77;7.50;;;17.20;99.90;;;;;;5027770;28;20425;-38
2021/05/29 10:06:32;;;;;;;8.90;8.00;;;17.40;99.90;;;;;;5031104;28;20526;-38
2021/05/29 10:08:58;;;;;;;9.27;8.37;;;17.70;99.90;;;;;;5040523;28;20532;-38
2021/05/29 10:11:24;;;;;;;9.00;8.10;;;17.80;99.90;;;;;;5043853;28;20244;-38
2021/05/29 10:13:49;;;;;;;10.07;8.33;;;18.00;99.90;;;;;;5033813;28;20417;-38
2021/05/29 10:16:15;;;;;;;11.90;8.67;;;18.20;99.90;;;;;;5047876;28;20927;-38
2021/05/29 10:18:49;;;;;;;8.43;7.53;;;18.30;99.90;;;;;;5046420;28;20189;-38
2021/05/29 10:21:16;;;;;;;9.50;7.30;;;18.50;99.90;;;;;;5047529;28;20651;-38
2021/05/29 10:23:45;;;;;;;9.00;8.10;;;18.60;99.90;;;;;;5039461;28;20462;-38
2021/05/29 10:26:14;;;;;;;9.87;8.70;;;18.50;99.90;;;;;;5031592;28;20487;-38
2021/05/29 10:28:40;;;;;;;10.40;8.37;;;18.30;99.90;;;;;;5026826;28;20425;-38
2021/05/29 10:31:06;;;;;;;9.43;7.97;;;18.10;99.90;;;;;;5033430;28;20530;-38
2021/05/29 10:33:43;;;;;;;12.20;8.13;;;18.10;99.90;;;;;;5025975;28;20425;-38
2021/05/29 10:36:29;;;;;;;7.93;7.20;;;18.10;99.90;;;;;;5027453;28;20431;-38
2021/05/29 10:38:55;;;;;;;9.30;7.63;;;18.00;99.90;;;;;;5034383;28;20495;-38
2021/05/29 10:41:50;;;;;;;10.77;7.80;;;18.00;99.90;;;;;;5031479;28;20998;-38
2021/05/29 10:44:40;;;;;;;13.03;8.90;;;17.90;99.90;;;;;;5026868;28;20254;-38
2021/05/29 10:47:12;;;;;;;8.60;7.70;;;17.90;99.90;;;;;;5036348;28;20919;-38
2021/05/29 10:49:47;;;;;;;8.43;7.63;;;18.00;99.90;;;;;;5026360;28;20425;-38
2021/05/29 10:52:32;;;;;;;8.87;7.97;;;18.10;99.90;;;;;;5026932;28;20460;-38
2021/05/29 10:55:16;;;;;;;10.90;8.30;;;18.30;99.90;;;;;;5036324;28;20455;-38
2021/05/29 10:58:06;;;;;;;7.57;6.87;;;18.50;99.90;;;;;;5038142;28;20475;-38
2021/05/29 11:03:25;;;;;;;9.30;7.93;;;18.50;99.90;;;;;;5033295;28;20428;-38
2021/05/29 11:05:52;;;;;;;9.57;7.73;;;18.50;99.90;;;;;;5036218;28;20435;-38
2021/05/29 11:08:50;;;;;;;9.40;7.90;;;18.70;99.90;;;;;;5045758;28;20459;-38
2021/05/29 11:11:58;;;;;;;8.80;7.50;;;18.80;99.40;;;;;;5037630;28;20452;-38
2021/05/29 11:14:26;;;;;;;9.67;7.20;;;18.90;99.90;;;;;;5037409;28;20792;-38
2021/05/29 11:16:53;;;;;;;8.50;7.47;;;18.90;99.90;;;;;;5037313;28;20934;-38
2021/05/29 11:19:23;;;;;;;8.57;7.53;;;19.00;98.90;;;;;;5035837;28;20835;-38
2021/05/29 11:22:10;;;;;;;7.27;6.57;;;19.00;99.20;;;;;;5032298;28;20420;-38
2021/05/29 11:24:48;;;;;;;7.77;7.00;;;19.20;98.90;;;;;;5031455;28;20437;-38
2021/05/29 11:27:25;;;;;;;10.10;7.57;;;19.20;98.40;;;;;;5041411;28;20412;-38
2021/05/29 11:30:01;;;;;;;9.13;7.53;;;19.40;99.80;;;;;;5023637;28;20508;-38
2021/05/29 11:35:26;;;;;;;9.27;6.20;;;19.10;99.00;;;;;;5026619;28;20409;-38
2021/05/29 11:37:54;;;;;;;7.60;6.90;;;19.10;99.80;;;;;;5026104;28;20504;-38
2021/05/29 11:40:20;;;;;;;8.67;7.63;;;19.20;99.20;;;;;;5035809;28;20481;-38
2021/05/29 11:42:52;;;;;;;7.17;6.50;;;19.20;99.10;;;;;;5036129;28;20425;-38
2021/05/29 11:45:19;;;;;;;7.30;6.60;;;19.00;98.70;;;;;;5026648;28;20585;-38
2021/05/29 11:47:45;;;;;;;7.77;6.50;;;18.90;98.50;;;;;;5031476;28;20425;-38
2021/05/29 11:50:16;;;;;;;6.67;6.03;;;19.00;99.00;;;;;;5025700;28;20432;-38
2021/05/29 11:52:44;;;;;;;7.20;5.97;;;18.90;99.90;;;;;;5024674;28;20440;-38
2021/05/29 11:55:11;;;;;;;8.80;6.80;;;19.00;99.90;;;;;;5029005;28;20448;-38
2021/05/29 11:58:00;;;;;;;8.10;6.83;;;18.90;99.60;;;;;;5032826;28;20425;-38
2021/05/29 12:00:27;;;;;;;7.23;6.27;;;18.90;99.80;;;;;;5036326;28;20494;-38
2021/05/29 12:02:54;;;;;;;7.30;6.60;;;19.20;99.90;;;;;;5036529;28;20952;-38
2021/05/29 12:05:20;;;;;;;6.20;5.60;;;19.40;99.50;;;;;;5036546;28;20432;-38
2021/05/29 12:08:03;;;;;;;6.97;6.27;;;19.20;98.60;;;;;;5046390;28;20447;-38
2021/05/29 12:10:49;;;;;;;7.40;5.40;;;19.20;99.20;;;;;;5037628;28;20469;-38
2021/05/29 12:13:41;;;;;;;6.07;5.47;;;19.10;99.20;;;;;;5032257;28;20428;-38
2021/05/29 12:16:08;;;;;;;6.90;6.20;;;19.10;99.10;;;;;;5043810;28;21005;-38
2021/05/29 12:18:38;;;;;;;6.07;5.40;;;19.20;98.80;;;;;;5041148;28;20625;-38
2021/05/29 12:21:06;;;;;;;7.30;6.57;;;19.10;98.60;;;;;;5025757;28;20459;-38
2021/05/29 12:24:02;;;;;;;6.60;6.00;;;19.00;98.90;;;;;;5034156;28;20433;-38
2021/05/29 12:26:28;;;;;;;6.83;6.17;;;19.00;99.80;;;;;;5042531;28;20502;-38
2021/05/29 12:28:54;;;;;;;6.73;5.87;;;19.00;99.00;;;;;;5044270;28;20494;-38
2021/05/29 12:31:22;;;;;;;6.93;6.10;;;18.90;98.40;;;;;;5029561;28;20465;-38
2021/05/29 12:34:01;;;;;;;5.77;5.20;;;19.00;99.50;;;;;;5028411;28;20186;-38
2021/05/29 12:36:27;;;;;;;5.90;5.13;;;18.80;98.40;;;;;;5025693;28;20421;-38
2021/05/29 12:38:54;;;;;;;6.70;6.07;;;19.00;98.80;;;;;;5024630;28;20425;-38
2021/05/29 12:41:23;;;;;;;6.00;5.40;;;19.10;98.40;;;;;;5040799;28;20189;-38
2021/05/29 12:44:06;;;;;;;8.07;6.30;;;19.20;99.60;;;;;;5033400;28;20927;-38
2021/05/29 12:46:32;;;;;;;7.17;6.47;;;19.10;97.70;;;;;;5037025;28;20432;-38
2021/05/29 12:49:13;;;;;;;8.23;6.07;;;19.10;99.60;;;;;;5047475;28;20509;-38
2021/05/29 12:51:50;;;;;;;6.83;6.13;;;19.20;98.90;;;;;;5029120;28;20468;-38
2021/05/29 12:54:17;;;;;;;8.73;6.47;;;19.20;98.20;;;;;;5032409;28;20962;-38
2021/05/29 12:56:54;;;;;;;8.87;6.67;;;19.30;99.90;;;;;;5041157;28;20417;-38
2021/05/29 12:59:25;;;;;;;6.80;6.10;;;19.40;98.00;;;;;;5034774;28;20512;-38
2021/05/29 13:02:32;;;;;;;10.43;7.03;;;19.20;98.10;;;;;;5028695;28;20512;-37
2021/05/29 13:07:48;;;;;;;8.47;7.20;;;19.10;98.80;;;;;;5028886;28;20445;-38
2021/05/29 13:10:21;;;;;;;7.17;6.03;;;19.10;99.40;;;;;;5034099;28;20780;-38